sensor_id;sensor_type;location;lat;lon;timestamp;temperature;humidity
1568;DHT22;777;47.156;8.326;2022-10-17T00:00:53;12.00;99.90
1568;DHT22;777;47.156;8.326;2022-10-17T00:03:20;12.00;99.90
1568;DHT22;777;47.156;8.326;2022-10-17T00:05:48;12.00;99.90
1568;DHT22;777;47.156;8.326;2022-10-17T00:08:16;12.10;99.90
1568;DHT22;777;47.156;8.326;2022-10-17T00:10:45;12.00;99.90
1568;DHT22;777;47.156;8.326;2022-10-17T00:13:20;12.00;99.90
1568;DHT22;777;47.156;8.326;2022-10-17T00:15:47;12.20;99.90
1568;DHT22;777;47.156;8.326;2022-10-17T00:18:14;12.10;99.90
1568;DHT22;777;47.156;8.326;2022-10-17T00:20:41;12.20;99.90
1568;DHT22;777;47.156;8.326;2022-10-17T00:23:08;12.30;99.90
1568;DHT22;777;47.156;8.326;2022-10-17T00:25:35;12.30;99.90
1568;DHT22;777;47.156;8.326;2022-10-17T00:28:04;12.30;99.90
1568;DHT22;777;47.156;8.326;2022-10-17T00:30:31;12.20;99.90
1568;DHT22;777;47.156;8.326;2022-10-17T00:32:58;12.20;99.90
1568;DHT22;777;47.156;8.326;2022-10-17T00:35:25;12.20;99.90
1568;DHT22;777;47.156;8.326;2022-10-17T00:37:52;12.20;99.90
1568;DHT22;777;47.156;8.326;2022-10-17T00:40:19;12.20;99.90
1568;DHT22;777;47.156;8.326;2022-10-17T00:42:46;12.10;99.90
1568;DHT22;777;47.156;8.326;2022-10-17T00:45:20;12.10;99.90
1568;DHT22;777;47.156;8.326;2022-10-17T00:47:52;12.20;99.90
1568;DHT22;777;47.156;8.326;2022-10-17T00:50:20;12.20;99.90
1568;DHT22;777;47.156;8.326;2022-10-17T00:52:49;12.10;99.90
1568;DHT22;777;47.156;8.326;2022-10-17T00:55:19;12.10;99.90
1568;DHT22;777;47.156;8.326;2022-10-17T00:57:47;12.10;99.90
1568;DHT22;777;47.156;8.326;2022-10-17T01:00:15;12.00;99.90
1568;DHT22;777;47.156;8.326;2022-10-17T01:02:45;11.90;99.90
1568;DHT22;777;47.156;8.326;2022-10-17T01:05:12;11.90;99.90
1568;DHT22;777;47.156;8.326;2022-10-17T01:07:42;11.90;99.90
1568;DHT22;777;47.156;8.326;2022-10-17T01:10:11;11.80;99.90
1568;DHT22;777;47.156;8.326;2022-10-17T01:12:46;11.70;99.90
1568;DHT22;777;47.156;8.326;2022-10-17T01:15:26;11.70;99.90
1568;DHT22;777;47.156;8.326;2022-10-17T01:18:05;11.70;99.90
1568;DHT22;777;47.156;8.326;2022-10-17T01:20:58;11.70;99.90
1568;DHT22;777;47.156;8.326;2022-10-17T01:23:51;11.70;99.90
1568;DHT22;777;47.156;8.326;2022-10-17T01:26:25;11.70;99.90
1568;DHT22;777;47.156;8.326;2022-10-17T01:29:15;11.70;99.90
1568;DHT22;777;47.156;8.326;2022-10-17T01:31:49;11.70;99.90
1568;DHT22;777;47.156;8.326;2022-10-17T01:34:27;11.70;99.90
1568;DHT22;777;47.156;8.326;2022-10-17T01:37:01;11.60;99.90
1568;DHT22;777;47.156;8.326;2022-10-17T01:39:38;11.60;99.90
1568;DHT22;777;47.156;8.326;2022-10-17T01:42:13;11.60;99.90
1568;DHT22;777;47.156;8.326;2022-10-17T01:44:47;11.50;99.90
1568;DHT22;777;47.156;8.326;2022-10-17T01:47:20;11.40;99.90
1568;DHT22;777;47.156;8.326;2022-10-17T01:49:50;11.40;99.90
1568;DHT22;777;47.156;8.326;2022-10-17T01:52:19;11.30;99.90
1568;DHT22;777;47.156;8.326;2022-10-17T01:54:51;11.20;99.90
1568;DHT22;777;47.156;8.326;2022-10-17T01:57:24;11.20;99.90
1568;DHT22;777;47.156;8.326;2022-10-17T01:59:54;11.20;99.90
1568;DHT22;777;47.156;8.326;2022-10-17T02:02:25;11.10;99.90
1568;DHT22;777;47.156;8.326;2022-10-17T02:04:53;11.00;99.90
1568;DHT22;777;47.156;8.326;2022-10-17T02:07:21;11.00;99.90
1568;DHT22;777;47.156;8.326;2022-10-17T02:09:48;11.00;99.90
1568;DHT22;777;47.156;8.326;2022-10-17T02:12:27;10.90;99.90
1568;DHT22;777;47.156;8.326;2022-10-17T02:15:08;10.90;99.90
1568;DHT22;777;47.156;8.326;2022-10-17T02:17:44;10.70;99.90
1568;DHT22;777;47.156;8.326;2022-10-17T02:20:22;10.70;99.90
1568;DHT22;777;47.156;8.326;2022-10-17T02:22:54;10.50;99.90
1568;DHT22;777;47.156;8.326;2022-10-17T02:25:29;10.50;99.90
1568;DHT22;777;47.156;8.326;2022-10-17T02:28:06;10.50;99.90
1568;DHT22;777;47.156;8.326;2022-10-17T02:30:40;10.50;99.90
1568;DHT22;777;47.156;8.326;2022-10-17T02:33:14;10.50;99.90
1568;DHT22;777;47.156;8.326;2022-10-17T02:35:46;10.40;99.90
1568;DHT22;777;47.156;8.326;2022-10-17T02:38:15;10.50;99.90
1568;DHT22;777;47.156;8.326;2022-10-17T02:40:43;10.50;99.90
1568;DHT22;777;47.156;8.326;2022-10-17T02:43:12;10.40;99.90
1568;DHT22;777;47.156;8.326;2022-10-17T02:45:40;10.40;99.90
1568;DHT22;777;47.156;8.326;2022-10-17T02:48:14;10.40;99.90
1568;DHT22;777;47.156;8.326;2022-10-17T02:50:51;10.40;99.90
1568;DHT22;777;47.156;8.326;2022-10-17T02:53:27;10.40;99.90
1568;DHT22;777;47.156;8.326;2022-10-17T02:55:59;10.40;99.90
1568;DHT22;777;47.156;8.326;2022-10-17T02:58:31;10.40;99.90
1568;DHT22;777;47.156;8.326;2022-10-17T03:01:00;10.30;99.90
1568;DHT22;777;47.156;8.326;2022-10-17T03:03:31;10.30;99.90
1568;DHT22;777;47.156;8.326;2022-10-17T03:06:01;10.30;99.90
1568;DHT22;777;47.156;8.326;2022-10-17T03:08:28;10.30;99.90
1568;DHT22;777;47.156;8.326;2022-10-17T03:10:55;10.30;99.90
1568;DHT22;777;47.156;8.326;2022-10-17T03:13:23;10.30;99.90
1568;DHT22;777;47.156;8.326;2022-10-17T03:15:50;10.20;99.90
1568;DHT22;777;47.156;8.326;2022-10-17T03:18:17;10.20;99.90
1568;DHT22;777;47.156;8.326;2022-10-17T03:20:47;10.20;99.90
1568;DHT22;777;47.156;8.326;2022-10-17T03:23:14;10.10;99.90
1568;DHT22;777;47.156;8.326;2022-10-17T03:25:41;10.10;99.90
1568;DHT22;777;47.156;8.326;2022-10-17T03:28:10;10.00;99.90
1568;DHT22;777;47.156;8.326;2022-10-17T03:30:38;10.00;99.90
1568;DHT22;777;47.156;8.326;2022-10-17T03:33:05;9.90;99.90
1568;DHT22;777;47.156;8.326;2022-10-17T03:35:32;9.90;99.90
1568;DHT22;777;47.156;8.326;2022-10-17T03:38:01;9.90;99.90
1568;DHT22;777;47.156;8.326;2022-10-17T03:40:28;9.80;99.90
1568;DHT22;777;47.156;8.326;2022-10-17T03:42:55;9.70;99.90
1568;DHT22;777;47.156;8.326;2022-10-17T03:45:22;9.70;99.90
1568;DHT22;777;47.156;8.326;2022-10-17T03:47:51;9.80;99.90
1568;DHT22;777;47.156;8.326;2022-10-17T03:50:18;9.80;99.90
1568;DHT22;777;47.156;8.326;2022-10-17T03:52:45;9.70;99.90
1568;DHT22;777;47.156;8.326;2022-10-17T03:55:15;9.60;99.90
1568;DHT22;777;47.156;8.326;2022-10-17T03:57:42;9.60;99.90
1568;DHT22;777;47.156;8.326;2022-10-17T04:00:11;9.60;99.90
1568;DHT22;777;47.156;8.326;2022-10-17T04:02:41;9.50;99.90
1568;DHT22;777;47.156;8.326;2022-10-17T04:05:15;9.50;99.90
1568;DHT22;777;47.156;8.326;2022-10-17T04:07:42;9.50;99.90
1568;DHT22;777;47.156;8.326;2022-10-17T04:10:11;9.50;99.90
1568;DHT22;777;47.156;8.326;2022-10-17T04:12:40;9.50;99.90
1568;DHT22;777;47.156;8.326;2022-10-17T04:15:08;9.50;99.90
1568;DHT22;777;47.156;8.326;2022-10-17T04:17:36;9.60;99.90
1568;DHT22;777;47.156;8.326;2022-10-17T04:20:04;9.60;99.90
1568;DHT22;777;47.156;8.326;2022-10-17T04:22:31;9.50;99.90
1568;DHT22;777;47.156;8.326;2022-10-17T04:24:58;9.60;99.90
1568;DHT22;777;47.156;8.326;2022-10-17T04:27:39;9.60;99.90
1568;DHT22;777;47.156;8.326;2022-10-17T04:30:07;9.60;99.90
1568;DHT22;777;47.156;8.326;2022-10-17T04:32:36;9.50;99.90
1568;DHT22;777;47.156;8.326;2022-10-17T04:35:21;9.50;99.90
1568;DHT22;777;47.156;8.326;2022-10-17T04:37:56;9.40;99.90
1568;DHT22;777;47.156;8.326;2022-10-17T04:40:24;9.40;99.90
1568;DHT22;777;47.156;8.326;2022-10-17T04:42:53;9.50;99.90
1568;DHT22;777;47.156;8.326;2022-10-17T04:45:27;9.50;99.90
1568;DHT22;777;47.156;8.326;2022-10-17T04:47:59;9.50;99.90
1568;DHT22;777;47.156;8.326;2022-10-17T04:50:26;9.40;99.90
1568;DHT22;777;47.156;8.326;2022-10-17T04:53:23;9.20;99.90
1568;DHT22;777;47.156;8.326;2022-10-17T04:55:51;9.10;99.90
1568;DHT22;777;47.156;8.326;2022-10-17T04:58:21;9.20;99.90
1568;DHT22;777;47.156;8.326;2022-10-17T05:00:49;9.10;99.90
1568;DHT22;777;47.156;8.326;2022-10-17T05:03:22;9.10;99.90
1568;DHT22;777;47.156;8.326;2022-10-17T05:05:49;9.10;99.90
1568;DHT22;777;47.156;8.326;2022-10-17T05:08:16;9.00;99.90
1568;DHT22;777;47.156;8.326;2022-10-17T05:10:44;9.00;99.90
1568;DHT22;777;47.156;8.326;2022-10-17T05:13:12;9.00;99.90
1568;DHT22;777;47.156;8.326;2022-10-17T05:15:41;9.10;99.90
1568;DHT22;777;47.156;8.326;2022-10-17T05:18:10;9.10;99.90
1568;DHT22;777;47.156;8.326;2022-10-17T05:20:37;9.20;99.90
1568;DHT22;777;47.156;8.326;2022-10-17T05:23:05;9.10;99.90
1568;DHT22;777;47.156;8.326;2022-10-17T05:25:38;9.10;99.90
1568;DHT22;777;47.156;8.326;2022-10-17T05:28:05;9.10;99.90
1568;DHT22;777;47.156;8.326;2022-10-17T05:30:33;9.00;99.90
1568;DHT22;777;47.156;8.326;2022-10-17T05:33:02;8.90;99.90
1568;DHT22;777;47.156;8.326;2022-10-17T05:35:30;8.90;99.90
1568;DHT22;777;47.156;8.326;2022-10-17T05:37:57;8.90;99.90
1568;DHT22;777;47.156;8.326;2022-10-17T05:40:25;8.80;99.90
1568;DHT22;777;47.156;8.326;2022-10-17T05:42:54;8.90;99.90
1568;DHT22;777;47.156;8.326;2022-10-17T05:45:22;8.90;99.90
1568;DHT22;777;47.156;8.326;2022-10-17T05:47:49;8.90;99.90
1568;DHT22;777;47.156;8.326;2022-10-17T05:50:18;8.90;99.90
1568;DHT22;777;47.156;8.326;2022-10-17T05:52:58;8.90;99.90
1568;DHT22;777;47.156;8.326;2022-10-17T05:55:26;8.90;99.90
1568;DHT22;777;47.156;8.326;2022-10-17T05:57:54;9.00;99.90
1568;DHT22;777;47.156;8.326;2022-10-17T06:00:26;9.00;99.90
1568;DHT22;777;47.156;8.326;2022-10-17T06:02:57;9.10;99.90
1568;DHT22;777;47.156;8.326;2022-10-17T06:05:25;9.10;99.90
1568;DHT22;777;47.156;8.326;2022-10-17T06:07:52;9.20;99.90
1568;DHT22;777;47.156;8.326;2022-10-17T06:10:21;9.30;99.90
1568;DHT22;777;47.156;8.326;2022-10-17T06:12:48;9.40;99.90
1568;DHT22;777;47.156;8.326;2022-10-17T06:15:15;9.40;99.90
1568;DHT22;777;47.156;8.326;2022-10-17T06:17:47;9.30;99.90
1568;DHT22;777;47.156;8.326;2022-10-17T06:20:14;9.30;99.90
1568;DHT22;777;47.156;8.326;2022-10-17T06:22:43;9.40;99.90
1568;DHT22;777;47.156;8.326;2022-10-17T06:25:16;9.50;99.90
1568;DHT22;777;47.156;8.326;2022-10-17T06:27:44;9.70;99.90
1568;DHT22;777;47.156;8.326;2022-10-17T06:30:11;9.90;99.90
1568;DHT22;777;47.156;8.326;2022-10-17T06:32:38;10.00;99.90
1568;DHT22;777;47.156;8.326;2022-10-17T06:35:06;10.30;99.90
1568;DHT22;777;47.156;8.326;2022-10-17T06:37:34;11.30;99.90
1568;DHT22;777;47.156;8.326;2022-10-17T06:40:05;12.50;99.90
1568;DHT22;777;47.156;8.326;2022-10-17T06:42:34;13.40;99.90
1568;DHT22;777;47.156;8.326;2022-10-17T06:45:21;14.30;99.90
1568;DHT22;777;47.156;8.326;2022-10-17T06:48:18;15.40;99.90
1568;DHT22;777;47.156;8.326;2022-10-17T06:51:05;16.70;99.90
1568;DHT22;777;47.156;8.326;2022-10-17T06:53:43;17.80;99.90
1568;DHT22;777;47.156;8.326;2022-10-17T06:56:41;18.30;99.90
1568;DHT22;777;47.156;8.326;2022-10-17T06:59:28;18.70;99.90
1568;DHT22;777;47.156;8.326;2022-10-17T07:02:16;19.20;99.90
1568;DHT22;777;47.156;8.326;2022-10-17T07:04:44;19.80;99.90
1568;DHT22;777;47.156;8.326;2022-10-17T07:07:11;20.30;99.90
1568;DHT22;777;47.156;8.326;2022-10-17T07:09:38;20.80;99.90
1568;DHT22;777;47.156;8.326;2022-10-17T07:12:08;20.00;99.90
1568;DHT22;777;47.156;8.326;2022-10-17T07:14:41;20.10;99.90
1568;DHT22;777;47.156;8.326;2022-10-17T07:17:11;20.10;99.90
1568;DHT22;777;47.156;8.326;2022-10-17T07:19:39;20.00;99.90
1568;DHT22;777;47.156;8.326;2022-10-17T07:22:08;20.30;99.90
1568;DHT22;777;47.156;8.326;2022-10-17T07:24:37;20.40;99.90
1568;DHT22;777;47.156;8.326;2022-10-17T07:27:14;20.70;99.90
1568;DHT22;777;47.156;8.326;2022-10-17T07:29:41;21.40;99.90
1568;DHT22;777;47.156;8.326;2022-10-17T07:32:17;22.10;99.90
1568;DHT22;777;47.156;8.326;2022-10-17T07:34:45;22.50;99.90
1568;DHT22;777;47.156;8.326;2022-10-17T07:37:12;22.60;99.90
1568;DHT22;777;47.156;8.326;2022-10-17T07:39:44;22.60;99.90
1568;DHT22;777;47.156;8.326;2022-10-17T07:42:12;22.60;99.90
1568;DHT22;777;47.156;8.326;2022-10-17T07:44:40;22.70;99.90
1568;DHT22;777;47.156;8.326;2022-10-17T07:47:08;22.80;99.90
1568;DHT22;777;47.156;8.326;2022-10-17T07:49:36;23.00;99.90
1568;DHT22;777;47.156;8.326;2022-10-17T07:52:08;24.00;99.90
1568;DHT22;777;47.156;8.326;2022-10-17T07:54:36;23.80;99.90
1568;DHT22;777;47.156;8.326;2022-10-17T07:57:03;23.70;99.90
1568;DHT22;777;47.156;8.326;2022-10-17T07:59:31;23.50;99.90
1568;DHT22;777;47.156;8.326;2022-10-17T08:02:00;23.50;99.90
1568;DHT22;777;47.156;8.326;2022-10-17T08:04:27;24.20;99.90
1568;DHT22;777;47.156;8.326;2022-10-17T08:06:54;24.80;99.90
1568;DHT22;777;47.156;8.326;2022-10-17T08:09:21;25.10;99.90
1568;DHT22;777;47.156;8.326;2022-10-17T08:11:48;24.50;99.90
1568;DHT22;777;47.156;8.326;2022-10-17T08:14:15;24.50;99.90
1568;DHT22;777;47.156;8.326;2022-10-17T08:16:42;24.10;99.90
1568;DHT22;777;47.156;8.326;2022-10-17T08:19:10;24.20;99.90
1568;DHT22;777;47.156;8.326;2022-10-17T08:21:38;24.10;99.90
1568;DHT22;777;47.156;8.326;2022-10-17T08:24:06;23.80;99.90
1568;DHT22;777;47.156;8.326;2022-10-17T08:26:33;24.00;99.90
1568;DHT22;777;47.156;8.326;2022-10-17T08:28:59;25.00;99.90
1568;DHT22;777;47.156;8.326;2022-10-17T08:31:27;26.20;99.90
1568;DHT22;777;47.156;8.326;2022-10-17T08:33:53;26.40;99.90
1568;DHT22;777;47.156;8.326;2022-10-17T08:36:22;27.00;99.90
1568;DHT22;777;47.156;8.326;2022-10-17T08:38:49;27.80;99.90
1568;DHT22;777;47.156;8.326;2022-10-17T08:41:32;27.20;99.90
1568;DHT22;777;47.156;8.326;2022-10-17T08:44:07;26.60;99.90
1568;DHT22;777;47.156;8.326;2022-10-17T08:46:40;26.10;99.90
1568;DHT22;777;47.156;8.326;2022-10-17T08:49:12;25.60;99.90
1568;DHT22;777;47.156;8.326;2022-10-17T08:51:56;25.60;99.90
1568;DHT22;777;47.156;8.326;2022-10-17T08:54:29;25.00;99.90
1568;DHT22;777;47.156;8.326;2022-10-17T08:57:00;25.40;99.90
1568;DHT22;777;47.156;8.326;2022-10-17T08:59:29;26.10;99.90
1568;DHT22;777;47.156;8.326;2022-10-17T09:02:00;27.10;99.90
1568;DHT22;777;47.156;8.326;2022-10-17T09:04:53;27.80;99.90
1568;DHT22;777;47.156;8.326;2022-10-17T09:07:33;28.50;99.90
1568;DHT22;777;47.156;8.326;2022-10-17T09:10:08;28.60;99.90
1568;DHT22;777;47.156;8.326;2022-10-17T09:12:46;28.60;99.90
1568;DHT22;777;47.156;8.326;2022-10-17T09:15:31;28.80;99.90
1568;DHT22;777;47.156;8.326;2022-10-17T09:18:02;28.80;99.90
1568;DHT22;777;47.156;8.326;2022-10-17T09:20:37;29.30;99.90
1568;DHT22;777;47.156;8.326;2022-10-17T09:23:11;29.30;99.90
1568;DHT22;777;47.156;8.326;2022-10-17T09:25:40;29.00;99.90
1568;DHT22;777;47.156;8.326;2022-10-17T09:28:14;29.40;99.90
1568;DHT22;777;47.156;8.326;2022-10-17T09:30:45;30.40;99.90
1568;DHT22;777;47.156;8.326;2022-10-17T09:33:14;30.50;99.90
1568;DHT22;777;47.156;8.326;2022-10-17T09:35:42;30.90;99.90
1568;DHT22;777;47.156;8.326;2022-10-17T09:38:16;29.50;99.90
1568;DHT22;777;47.156;8.326;2022-10-17T09:40:44;28.90;99.90
1568;DHT22;777;47.156;8.326;2022-10-17T09:43:13;29.10;99.90
1568;DHT22;777;47.156;8.326;2022-10-17T09:45:50;29.50;99.90
1568;DHT22;777;47.156;8.326;2022-10-17T09:48:25;30.10;99.90
1568;DHT22;777;47.156;8.326;2022-10-17T09:50:52;31.10;99.90
1568;DHT22;777;47.156;8.326;2022-10-17T09:53:25;31.10;98.90
1568;DHT22;777;47.156;8.326;2022-10-17T09:55:55;29.50;99.90
1568;DHT22;777;47.156;8.326;2022-10-17T09:58:25;29.10;99.90
1568;DHT22;777;47.156;8.326;2022-10-17T10:01:16;28.40;99.90
1568;DHT22;777;47.156;8.326;2022-10-17T10:03:43;29.30;99.90
1568;DHT22;777;47.156;8.326;2022-10-17T10:06:13;28.80;99.90
1568;DHT22;777;47.156;8.326;2022-10-17T10:08:50;28.60;99.90
1568;DHT22;777;47.156;8.326;2022-10-17T10:11:18;28.80;99.90
1568;DHT22;777;47.156;8.326;2022-10-17T10:13:49;28.80;99.90
1568;DHT22;777;47.156;8.326;2022-10-17T10:16:22;28.20;99.90
1568;DHT22;777;47.156;8.326;2022-10-17T10:18:50;27.60;99.90
1568;DHT22;777;47.156;8.326;2022-10-17T10:21:19;26.70;99.90
1568;DHT22;777;47.156;8.326;2022-10-17T10:26:41;26.70;99.90
1568;DHT22;777;47.156;8.326;2022-10-17T10:29:21;28.60;99.90
1568;DHT22;777;47.156;8.326;2022-10-17T10:31:49;28.10;99.90
1568;DHT22;777;47.156;8.326;2022-10-17T10:34:20;27.80;99.90
1568;DHT22;777;47.156;8.326;2022-10-17T10:36:52;28.20;99.90
1568;DHT22;777;47.156;8.326;2022-10-17T10:39:40;28.60;99.90
1568;DHT22;777;47.156;8.326;2022-10-17T10:42:25;27.50;99.90
1568;DHT22;777;47.156;8.326;2022-10-17T10:44:54;27.40;99.90
1568;DHT22;777;47.156;8.326;2022-10-17T10:47:24;28.20;99.90
1568;DHT22;777;47.156;8.326;2022-10-17T10:50:06;29.00;99.90
1568;DHT22;777;47.156;8.326;2022-10-17T10:52:40;29.80;99.90
1568;DHT22;777;47.156;8.326;2022-10-17T10:55:19;30.30;99.90
1568;DHT22;777;47.156;8.326;2022-10-17T10:57:54;30.10;99.90
1568;DHT22;777;47.156;8.326;2022-10-17T11:00:24;30.10;99.90
1568;DHT22;777;47.156;8.326;2022-10-17T11:02:59;30.40;99.90
1568;DHT22;777;47.156;8.326;2022-10-17T11:05:38;30.00;99.90
1568;DHT22;777;47.156;8.326;2022-10-17T11:08:14;30.80;99.90
1568;DHT22;777;47.156;8.326;2022-10-17T11:10:54;31.90;99.90
1568;DHT22;777;47.156;8.326;2022-10-17T11:13:27;32.90;97.80
1568;DHT22;777;47.156;8.326;2022-10-17T11:16:01;33.50;97.20
1568;DHT22;777;47.156;8.326;2022-10-17T11:18:34;34.00;95.20
1568;DHT22;777;47.156;8.326;2022-10-17T11:21:12;33.70;95.50
1568;DHT22;777;47.156;8.326;2022-10-17T11:23:45;34.10;94.90
1568;DHT22;777;47.156;8.326;2022-10-17T11:26:16;34.40;94.60
1568;DHT22;777;47.156;8.326;2022-10-17T11:28:52;34.40;93.80
1568;DHT22;777;47.156;8.326;2022-10-17T11:31:20;33.70;93.10
1568;DHT22;777;47.156;8.326;2022-10-17T11:33:49;33.40;93.60
1568;DHT22;777;47.156;8.326;2022-10-17T11:36:20;33.00;92.70
1568;DHT22;777;47.156;8.326;2022-10-17T11:38:50;32.30;94.00
1568;DHT22;777;47.156;8.326;2022-10-17T11:41:23;32.50;94.60
1568;DHT22;777;47.156;8.326;2022-10-17T11:43:57;33.60;94.00
1568;DHT22;777;47.156;8.326;2022-10-17T11:46:27;34.50;92.80
1568;DHT22;777;47.156;8.326;2022-10-17T11:49:05;35.10;91.30
1568;DHT22;777;47.156;8.326;2022-10-17T11:51:40;35.50;90.60
1568;DHT22;777;47.156;8.326;2022-10-17T11:54:12;36.20;90.10
1568;DHT22;777;47.156;8.326;2022-10-17T11:56:46;36.60;88.80
1568;DHT22;777;47.156;8.326;2022-10-17T11:59:47;36.60;88.40
1568;DHT22;777;47.156;8.326;2022-10-17T12:02:35;36.80;86.90
1568;DHT22;777;47.156;8.326;2022-10-17T12:05:15;35.80;86.60
1568;DHT22;777;47.156;8.326;2022-10-17T12:07:47;36.60;86.70
1568;DHT22;777;47.156;8.326;2022-10-17T12:10:26;36.30;83.30
1568;DHT22;777;47.156;8.326;2022-10-17T12:12:54;36.20;85.50
1568;DHT22;777;47.156;8.326;2022-10-17T12:15:30;36.70;83.90
1568;DHT22;777;47.156;8.326;2022-10-17T12:17:58;37.50;83.20
1568;DHT22;777;47.156;8.326;2022-10-17T12:20:34;37.90;82.20
1568;DHT22;777;47.156;8.326;2022-10-17T12:23:22;38.40;81.20
1568;DHT22;777;47.156;8.326;2022-10-17T12:25:52;39.20;79.00
1568;DHT22;777;47.156;8.326;2022-10-17T12:28:25;39.60;76.70
1568;DHT22;777;47.156;8.326;2022-10-17T12:31:00;39.70;75.80
1568;DHT22;777;47.156;8.326;2022-10-17T12:33:33;39.70;76.10
1568;DHT22;777;47.156;8.326;2022-10-17T12:42:32;40.30;72.60
1568;DHT22;777;47.156;8.326;2022-10-17T12:45:43;40.70;73.00
1568;DHT22;777;47.156;8.326;2022-10-17T12:48:11;41.30;71.50
1568;DHT22;777;47.156;8.326;2022-10-17T12:51:01;41.50;70.80
1568;DHT22;777;47.156;8.326;2022-10-17T12:53:36;41.40;69.30
1568;DHT22;777;47.156;8.326;2022-10-17T12:56:05;41.20;68.20
1568;DHT22;777;47.156;8.326;2022-10-17T12:58:33;41.00;68.50
1568;DHT22;777;47.156;8.326;2022-10-17T13:01:02;41.50;68.00
1568;DHT22;777;47.156;8.326;2022-10-17T13:03:42;41.70;67.30
1568;DHT22;777;47.156;8.326;2022-10-17T13:06:17;42.10;66.30
1568;DHT22;777;47.156;8.326;2022-10-17T13:08:48;41.90;66.30
1568;DHT22;777;47.156;8.326;2022-10-17T13:11:22;41.90;65.90
1568;DHT22;777;47.156;8.326;2022-10-17T13:13:52;42.30;65.80
1568;DHT22;777;47.156;8.326;2022-10-17T13:16:27;42.70;65.60
1568;DHT22;777;47.156;8.326;2022-10-17T13:18:55;42.80;65.00
1568;DHT22;777;47.156;8.326;2022-10-17T13:21:23;42.60;64.60
1568;DHT22;777;47.156;8.326;2022-10-17T13:23:50;42.80;63.90
1568;DHT22;777;47.156;8.326;2022-10-17T13:26:20;43.10;63.90
1568;DHT22;777;47.156;8.326;2022-10-17T13:29:00;42.80;63.40
1568;DHT22;777;47.156;8.326;2022-10-17T13:31:30;42.50;63.40
1568;DHT22;777;47.156;8.326;2022-10-17T13:34:00;42.50;63.10
1568;DHT22;777;47.156;8.326;2022-10-17T13:36:28;42.20;63.10
1568;DHT22;777;47.156;8.326;2022-10-17T13:38:57;42.50;63.20
1568;DHT22;777;47.156;8.326;2022-10-17T13:41:28;42.80;61.30
1568;DHT22;777;47.156;8.326;2022-10-17T13:43:56;41.70;62.30
1568;DHT22;777;47.156;8.326;2022-10-17T13:46:26;41.60;62.20
1568;DHT22;777;47.156;8.326;2022-10-17T13:48:55;42.50;62.10
1568;DHT22;777;47.156;8.326;2022-10-17T13:51:25;43.00;61.90
1568;DHT22;777;47.156;8.326;2022-10-17T13:53:53;43.30;61.10
1568;DHT22;777;47.156;8.326;2022-10-17T13:56:22;43.60;61.00
1568;DHT22;777;47.156;8.326;2022-10-17T13:58:51;42.80;60.50
1568;DHT22;777;47.156;8.326;2022-10-17T14:01:21;42.40;61.10
1568;DHT22;777;47.156;8.326;2022-10-17T14:03:49;41.40;60.50
1568;DHT22;777;47.156;8.326;2022-10-17T14:06:18;41.30;61.80
1568;DHT22;777;47.156;8.326;2022-10-17T14:08:51;41.80;61.70
1568;DHT22;777;47.156;8.326;2022-10-17T14:11:25;41.50;60.40
1568;DHT22;777;47.156;8.326;2022-10-17T14:13:54;41.00;61.40
1568;DHT22;777;47.156;8.326;2022-10-17T14:16:22;40.40;62.10
1568;DHT22;777;47.156;8.326;2022-10-17T14:18:51;39.20;62.50
1568;DHT22;777;47.156;8.326;2022-10-17T14:21:21;38.60;63.70
1568;DHT22;777;47.156;8.326;2022-10-17T14:23:50;38.40;64.10
1568;DHT22;777;47.156;8.326;2022-10-17T14:26:19;37.30;69.00
1568;DHT22;777;47.156;8.326;2022-10-17T14:28:48;35.30;74.10
1568;DHT22;777;47.156;8.326;2022-10-17T14:31:21;34.40;75.70
1568;DHT22;777;47.156;8.326;2022-10-17T14:33:51;34.00;76.60
1568;DHT22;777;47.156;8.326;2022-10-17T14:36:19;34.40;76.60
1568;DHT22;777;47.156;8.326;2022-10-17T14:38:50;33.50;77.80
1568;DHT22;777;47.156;8.326;2022-10-17T14:41:21;32.70;79.10
1568;DHT22;777;47.156;8.326;2022-10-17T14:43:58;33.50;79.50
1568;DHT22;777;47.156;8.326;2022-10-17T14:46:26;34.10;78.70
1568;DHT22;777;47.156;8.326;2022-10-17T14:48:56;34.00;78.20
1568;DHT22;777;47.156;8.326;2022-10-17T14:51:24;33.50;78.80
1568;DHT22;777;47.156;8.326;2022-10-17T14:54:02;33.40;79.60
1568;DHT22;777;47.156;8.326;2022-10-17T14:56:38;33.60;79.70
1568;DHT22;777;47.156;8.326;2022-10-17T14:59:06;33.70;78.70
1568;DHT22;777;47.156;8.326;2022-10-17T15:01:34;33.80;79.40
1568;DHT22;777;47.156;8.326;2022-10-17T15:04:02;33.70;79.00
1568;DHT22;777;47.156;8.326;2022-10-17T15:06:30;33.10;79.80
1568;DHT22;777;47.156;8.326;2022-10-17T15:08:59;33.10;81.10
1568;DHT22;777;47.156;8.326;2022-10-17T15:11:27;32.90;82.70
1568;DHT22;777;47.156;8.326;2022-10-17T15:13:54;32.20;83.90
1568;DHT22;777;47.156;8.326;2022-10-17T15:16:22;31.30;86.60
1568;DHT22;777;47.156;8.326;2022-10-17T15:18:50;31.20;87.70
1568;DHT22;777;47.156;8.326;2022-10-17T15:21:20;31.20;87.60
1568;DHT22;777;47.156;8.326;2022-10-17T15:23:47;31.00;87.20
1568;DHT22;777;47.156;8.326;2022-10-17T15:26:19;31.00;87.80
1568;DHT22;777;47.156;8.326;2022-10-17T15:28:47;31.50;87.80
1568;DHT22;777;47.156;8.326;2022-10-17T15:31:16;31.50;88.60
1568;DHT22;777;47.156;8.326;2022-10-17T15:33:44;30.90;90.30
1568;DHT22;777;47.156;8.326;2022-10-17T15:36:19;30.00;91.60
1568;DHT22;777;47.156;8.326;2022-10-17T15:38:46;29.30;92.70
1568;DHT22;777;47.156;8.326;2022-10-17T15:41:14;29.00;93.10
1568;DHT22;777;47.156;8.326;2022-10-17T15:43:42;28.60;94.30
1568;DHT22;777;47.156;8.326;2022-10-17T15:46:11;27.80;95.90
1568;DHT22;777;47.156;8.326;2022-10-17T15:48:39;26.70;98.50
1568;DHT22;777;47.156;8.326;2022-10-17T15:51:07;25.60;99.90
1568;DHT22;777;47.156;8.326;2022-10-17T15:53:34;24.60;99.90
1568;DHT22;777;47.156;8.326;2022-10-17T15:56:02;23.90;99.90
1568;DHT22;777;47.156;8.326;2022-10-17T15:58:34;23.80;99.90
1568;DHT22;777;47.156;8.326;2022-10-17T16:01:04;24.80;99.90
1568;DHT22;777;47.156;8.326;2022-10-17T16:03:31;25.80;99.90
1568;DHT22;777;47.156;8.326;2022-10-17T16:05:58;26.20;99.90
1568;DHT22;777;47.156;8.326;2022-10-17T16:08:25;26.50;99.90
1568;DHT22;777;47.156;8.326;2022-10-17T16:10:53;26.30;99.90
1568;DHT22;777;47.156;8.326;2022-10-17T16:13:22;25.80;99.90
1568;DHT22;777;47.156;8.326;2022-10-17T16:15:49;25.40;99.90
1568;DHT22;777;47.156;8.326;2022-10-17T16:18:18;25.00;99.90
1568;DHT22;777;47.156;8.326;2022-10-17T16:20:45;24.60;99.90
1568;DHT22;777;47.156;8.326;2022-10-17T16:23:13;24.20;99.90
1568;DHT22;777;47.156;8.326;2022-10-17T16:25:40;23.50;99.90
1568;DHT22;777;47.156;8.326;2022-10-17T16:28:08;22.30;99.90
1568;DHT22;777;47.156;8.326;2022-10-17T16:30:41;21.80;99.90
1568;DHT22;777;47.156;8.326;2022-10-17T16:33:10;21.10;99.90
1568;DHT22;777;47.156;8.326;2022-10-17T16:35:39;20.60;99.90
1568;DHT22;777;47.156;8.326;2022-10-17T16:38:06;20.30;99.90
1568;DHT22;777;47.156;8.326;2022-10-17T16:40:33;20.00;99.90
1568;DHT22;777;47.156;8.326;2022-10-17T16:43:03;19.70;99.90
1568;DHT22;777;47.156;8.326;2022-10-17T16:45:30;19.40;99.90
1568;DHT22;777;47.156;8.326;2022-10-17T16:47:57;19.10;99.90
1568;DHT22;777;47.156;8.326;2022-10-17T16:50:24;18.80;99.90
1568;DHT22;777;47.156;8.326;2022-10-17T16:52:52;18.70;99.90
1568;DHT22;777;47.156;8.326;2022-10-17T16:55:19;18.60;99.90
1568;DHT22;777;47.156;8.326;2022-10-17T16:57:46;18.60;99.90